sensor_id;sensor_type;location;lat;lon;timestamp;pressure;altitude;pressure_sealevel;temperature;humidity
77685;BME280;66844;46.092;18.268;2023-08-06T00:00:18;98017.66;;;18.16;98.75
77685;BME280;66844;46.092;18.268;2023-08-06T00:00:50;98012.25;;;18.16;98.91
77685;BME280;66844;46.092;18.268;2023-08-06T00:01:22;98015.59;;;18.18;99.23
77685;BME280;66844;46.092;18.268;2023-08-06T00:01:54;98004.00;;;18.18;99.02
77685;BME280;66844;46.092;18.268;2023-08-06T00:02:26;98004.84;;;18.18;99.00
77685;BME280;66844;46.092;18.268;2023-08-06T00:02:58;98009.22;;;18.19;99.20
77685;BME280;66844;46.092;18.268;2023-08-06T00:03:30;98011.06;;;18.19;98.84
77685;BME280;66844;46.092;18.268;2023-08-06T00:04:02;98013.56;;;18.20;99.14
77685;BME280;66844;46.092;18.268;2023-08-06T00:04:34;98005.50;;;18.20;99.57
77685;BME280;66844;46.092;18.268;2023-08-06T00:05:07;98019.78;;;18.21;98.98
77685;BME280;66844;46.092;18.268;2023-08-06T00:05:41;98016.44;;;18.19;99.35
77685;BME280;66844;46.092;18.268;2023-08-06T00:06:14;98013.56;;;18.20;99.02
77685;BME280;66844;46.092;18.268;2023-08-06T00:06:46;98018.78;;;18.22;99.44
77685;BME280;66844;46.092;18.268;2023-08-06T00:07:18;98019.63;;;18.22;99.37
77685;BME280;66844;46.092;18.268;2023-08-06T00:07:50;98019.63;;;18.22;99.32
77685;BME280;66844;46.092;18.268;2023-08-06T00:08:22;98012.56;;;18.21;99.09
77685;BME280;66844;46.092;18.268;2023-08-06T00:08:54;98012.75;;;18.20;98.75
77685;BME280;66844;46.092;18.268;2023-08-06T00:09:26;98017.97;;;18.13;99.33
77685;BME280;66844;46.092;18.268;2023-08-06T00:09:58;98015.47;;;18.12;99.20
77685;BME280;66844;46.092;18.268;2023-08-06T00:10:30;98011.22;;;18.17;99.28
77685;BME280;66844;46.092;18.268;2023-08-06T00:11:02;98015.44;;;18.20;99.37
77685;BME280;66844;46.092;18.268;2023-08-06T00:11:34;98015.25;;;18.21;99.57
77685;BME280;66844;46.092;18.268;2023-08-06T00:12:06;98013.75;;;18.19;98.83
77685;BME280;66844;46.092;18.268;2023-08-06T00:12:38;98010.88;;;18.20;98.86
77685;BME280;66844;46.092;18.268;2023-08-06T00:13:10;98013.56;;;18.20;98.72
77685;BME280;66844;46.092;18.268;2023-08-06T00:13:42;98007.03;;;18.15;98.92
77685;BME280;66844;46.092;18.268;2023-08-06T00:14:14;98013.06;;;18.17;99.28
77685;BME280;66844;46.092;18.268;2023-08-06T00:14:52;98012.06;;;18.18;98.68
77685;BME280;66844;46.092;18.268;2023-08-06T00:15:25;98000.47;;;18.17;98.55
77685;BME280;66844;46.092;18.268;2023-08-06T00:16:08;98008.19;;;18.20;99.17
77685;BME280;66844;46.092;18.268;2023-08-06T00:16:43;98004.34;;;18.15;98.34
77685;BME280;66844;46.092;18.268;2023-08-06T00:17:17;98011.06;;;18.19;98.09
77685;BME280;66844;46.092;18.268;2023-08-06T00:17:49;98004.00;;;18.18;97.90
77685;BME280;66844;46.092;18.268;2023-08-06T00:18:21;98004.84;;;18.18;98.26
77685;BME280;66844;46.092;18.268;2023-08-06T00:18:53;98002.66;;;18.22;97.89
77685;BME280;66844;46.092;18.268;2023-08-06T00:19:25;98000.94;;;18.21;97.58
77685;BME280;66844;46.092;18.268;2023-08-06T00:19:57;98010.06;;;18.20;97.20
77685;BME280;66844;46.092;18.268;2023-08-06T00:20:29;98010.22;;;18.18;97.67
77685;BME280;66844;46.092;18.268;2023-08-06T00:21:01;98009.88;;;18.21;98.13
77685;BME280;66844;46.092;18.268;2023-08-06T00:21:33;98003.66;;;18.21;97.51
77685;BME280;66844;46.092;18.268;2023-08-06T00:22:05;97991.72;;;18.15;97.41
77685;BME280;66844;46.092;18.268;2023-08-06T00:22:37;98005.53;;;18.12;97.59
77685;BME280;66844;46.092;18.268;2023-08-06T00:23:09;98004.50;;;18.13;97.41
77685;BME280;66844;46.092;18.268;2023-08-06T00:23:41;98003.84;;;18.19;97.32
77685;BME280;66844;46.092;18.268;2023-08-06T00:24:13;98002.66;;;18.22;97.40
77685;BME280;66844;46.092;18.268;2023-08-06T00:24:45;98005.34;;;18.22;97.03
77685;BME280;66844;46.092;18.268;2023-08-06T00:25:17;98002.66;;;18.22;97.14
77685;BME280;66844;46.092;18.268;2023-08-06T00:25:49;98001.63;;;18.23;96.85
77685;BME280;66844;46.092;18.268;2023-08-06T00:26:21;97998.44;;;18.19;97.25
77685;BME280;66844;46.092;18.268;2023-08-06T00:26:53;98001.31;;;18.18;96.55
77685;BME280;66844;46.092;18.268;2023-08-06T00:27:26;98007.69;;;18.17;96.77
77685;BME280;66844;46.092;18.268;2023-08-06T00:27:58;98003.84;;;18.19;96.83
77685;BME280;66844;46.092;18.268;2023-08-06T00:28:29;97991.38;;;18.18;96.52
77685;BME280;66844;46.092;18.268;2023-08-06T00:29:01;98000.31;;;18.19;96.70
77685;BME280;66844;46.092;18.268;2023-08-06T00:29:33;98000.81;;;18.14;96.52
77685;BME280;66844;46.092;18.268;2023-08-06T00:30:06;98002.31;;;18.17;96.62
77685;BME280;66844;46.092;18.268;2023-08-06T00:30:38;97998.63;;;18.18;97.17
77685;BME280;66844;46.092;18.268;2023-08-06T00:31:10;97997.25;;;18.22;97.33
77685;BME280;66844;46.092;18.268;2023-08-06T00:31:42;97998.44;;;18.19;96.86
77685;BME280;66844;46.092;18.268;2023-08-06T00:32:13;97990.72;;;18.16;96.48
77685;BME280;66844;46.092;18.268;2023-08-06T00:32:45;97997.41;;;18.20;96.99
77685;BME280;66844;46.092;18.268;2023-08-06T00:33:17;97998.44;;;18.19;96.66
77685;BME280;66844;46.092;18.268;2023-08-06T00:33:49;97991.53;;;18.17;96.57
77685;BME280;66844;46.092;18.268;2023-08-06T00:34:21;97989.69;;;18.17;96.17
77685;BME280;66844;46.092;18.268;2023-08-06T00:34:53;98000.66;;;18.16;96.11
77685;BME280;66844;46.092;18.268;2023-08-06T00:35:25;97992.72;;;18.14;96.13
77685;BME280;66844;46.092;18.268;2023-08-06T00:35:57;97987.84;;;18.18;96.27
77685;BME280;66844;46.092;18.268;2023-08-06T00:36:29;97997.97;;;18.16;96.76
77685;BME280;66844;46.092;18.268;2023-08-06T00:37:01;97989.88;;;18.16;96.62
77685;BME280;66844;46.092;18.268;2023-08-06T00:37:33;97994.22;;;18.17;96.57
77685;BME280;66844;46.092;18.268;2023-08-06T00:38:05;97998.81;;;18.16;96.69
77685;BME280;66844;46.092;18.268;2023-08-06T00:38:37;98002.50;;;18.15;96.26
77685;BME280;66844;46.092;18.268;2023-08-06T00:39:09;98003.16;;;18.17;96.78
77685;BME280;66844;46.092;18.268;2023-08-06T00:39:41;97996.28;;;18.15;96.64
77685;BME280;66844;46.092;18.268;2023-08-06T00:40:13;98005.69;;;18.11;96.66
77685;BME280;66844;46.092;18.268;2023-08-06T00:40:45;98002.00;;;18.12;96.47
77685;BME280;66844;46.092;18.268;2023-08-06T00:41:17;98003.16;;;18.09;96.36
77685;BME280;66844;46.092;18.268;2023-08-06T00:41:49;98003.66;;;18.13;96.61
77685;BME280;66844;46.092;18.268;2023-08-06T00:42:21;98002.84;;;18.12;96.27
77685;BME280;66844;46.092;18.268;2023-08-06T00:42:54;97999.66;;;18.09;96.31
77685;BME280;66844;46.092;18.268;2023-08-06T00:43:26;98003.00;;;18.11;96.63
77685;BME280;66844;46.092;18.268;2023-08-06T00:43:58;98011.22;;;18.17;96.88
77685;BME280;66844;46.092;18.268;2023-08-06T00:44:30;98002.31;;;18.17;96.39
77685;BME280;66844;46.092;18.268;2023-08-06T00:45:02;98006.69;;;18.18;96.07
77685;BME280;66844;46.092;18.268;2023-08-06T00:45:36;98007.19;;;18.13;96.00
77685;BME280;66844;46.092;18.268;2023-08-06T00:46:09;98009.38;;;18.18;95.82
77685;BME280;66844;46.092;18.268;2023-08-06T00:46:43;98016.81;;;18.16;95.94
77685;BME280;66844;46.092;18.268;2023-08-06T00:47:15;98011.22;;;18.17;96.19
77685;BME280;66844;46.092;18.268;2023-08-06T00:47:48;98012.25;;;18.16;95.80
77685;BME280;66844;46.092;18.268;2023-08-06T00:48:20;98013.91;;;18.17;95.99
77685;BME280;66844;46.092;18.268;2023-08-06T00:48:52;98011.56;;;18.14;95.66
77685;BME280;66844;46.092;18.268;2023-08-06T00:49:25;98012.06;;;18.18;96.31
77685;BME280;66844;46.092;18.268;2023-08-06T00:49:57;98016.81;;;18.16;96.18
77685;BME280;66844;46.092;18.268;2023-08-06T00:50:29;98009.88;;;18.13;95.83
77685;BME280;66844;46.092;18.268;2023-08-06T00:51:01;98013.25;;;18.15;95.25
77685;BME280;66844;46.092;18.268;2023-08-06T00:51:34;98007.19;;;18.13;95.13
77685;BME280;66844;46.092;18.268;2023-08-06T00:52:07;98010.25;;;18.10;94.96
77685;BME280;66844;46.092;18.268;2023-08-06T00:52:40;98003.00;;;18.11;95.70
77685;BME280;66844;46.092;18.268;2023-08-06T00:53:12;98010.56;;;18.15;95.65
77685;BME280;66844;46.092;18.268;2023-08-06T00:53:44;98011.41;;;18.16;95.43
77685;BME280;66844;46.092;18.268;2023-08-06T00:54:17;97999.97;;;18.14;95.44
77685;BME280;66844;46.092;18.268;2023-08-06T00:54:49;98005.19;;;18.07;94.91
77685;BME280;66844;46.092;18.268;2023-08-06T00:55:21;98002.66;;;18.14;95.48
77685;BME280;66844;46.092;18.268;2023-08-06T00:55:53;98005.84;;;18.17;95.50
77685;BME280;66844;46.092;18.268;2023-08-06T00:56:25;98010.22;;;18.18;95.43
77685;BME280;66844;46.092;18.268;2023-08-06T00:57:01;98006.03;;;18.16;95.33
77685;BME280;66844;46.092;18.268;2023-08-06T00:57:34;98011.56;;;18.14;95.18
77685;BME280;66844;46.092;18.268;2023-08-06T00:58:06;98003.66;;;18.13;95.63
77685;BME280;66844;46.092;18.268;2023-08-06T00:58:39;98007.19;;;18.13;95.44
77685;BME280;66844;46.092;18.268;2023-08-06T00:59:12;98008.88;;;18.14;95.02
77685;BME280;66844;46.092;18.268;2023-08-06T00:59:45;98010.38;;;18.17;94.80
77685;BME280;66844;46.092;18.268;2023-08-06T01:00:19;98012.25;;;18.16;94.33
77685;BME280;66844;46.092;18.268;2023-08-06T01:00:51;98017.13;;;18.13;94.59
77685;BME280;66844;46.092;18.268;2023-08-06T01:01:23;98011.41;;;18.16;94.32
77685;BME280;66844;46.092;18.268;2023-08-06T01:01:55;98007.19;;;18.13;94.17
77685;BME280;66844;46.092;18.268;2023-08-06T01:02:27;98011.25;;;18.09;94.13
77685;BME280;66844;46.092;18.268;2023-08-06T01:03:00;98008.03;;;18.14;94.66
77685;BME280;66844;46.092;18.268;2023-08-06T01:03:32;98010.94;;;18.12;94.13
77685;BME280;66844;46.092;18.268;2023-08-06T01:04:04;98014.44;;;18.13;94.73
77685;BME280;66844;46.092;18.268;2023-08-06T01:04:36;98008.22;;;18.12;94.47
77685;BME280;66844;46.092;18.268;2023-08-06T01:05:08;98006.53;;;18.11;94.39
77685;BME280;66844;46.092;18.268;2023-08-06T01:05:40;98013.44;;;18.14;94.24
77685;BME280;66844;46.092;18.268;2023-08-06T01:06:12;98013.44;;;18.14;94.84
77685;BME280;66844;46.092;18.268;2023-08-06T01:06:45;98012.06;;;18.18;94.48
77685;BME280;66844;46.092;18.268;2023-08-06T01:08:48;98010.94;;;18.12;94.78
77685;BME280;66844;46.092;18.268;2023-08-06T01:12:45;98009.38;;;18.10;94.72
77685;BME280;66844;46.092;18.268;2023-08-06T01:13:30;98011.44;;;18.08;94.97
77685;BME280;66844;46.092;18.268;2023-08-06T01:14:12;98017.81;;;18.07;95.51
77685;BME280;66844;46.092;18.268;2023-08-06T01:15:14;98011.56;;;18.14;95.27
77685;BME280;66844;46.092;18.268;2023-08-06T01:15:49;98013.78;;;18.11;95.23
77685;BME280;66844;46.092;18.268;2023-08-06T01:16:25;98013.63;;;18.12;95.72
77685;BME280;66844;46.092;18.268;2023-08-06T01:16:58;98020.16;;;18.10;96.05
77685;BME280;66844;46.092;18.268;2023-08-06T01:17:30;98016.47;;;18.11;95.98
77685;BME280;66844;46.092;18.268;2023-08-06T01:18:03;98013.78;;;18.11;95.30
77685;BME280;66844;46.092;18.268;2023-08-06T01:18:35;98012.94;;;18.10;95.58
77685;BME280;66844;46.092;18.268;2023-08-06T01:19:18;98017.31;;;18.11;95.70
77685;BME280;66844;46.092;18.268;2023-08-06T01:19:50;98017.31;;;18.11;95.96
77685;BME280;66844;46.092;18.268;2023-08-06T01:20:27;98014.63;;;18.11;96.34
77685;BME280;66844;46.092;18.268;2023-08-06T01:20:58;98012.59;;;18.13;95.85
77685;BME280;66844;46.092;18.268;2023-08-06T01:21:30;98018.50;;;18.09;96.54
77685;BME280;66844;46.092;18.268;2023-08-06T01:22:02;98013.94;;;18.09;96.31
77685;BME280;66844;46.092;18.268;2023-08-06T01:22:35;98016.47;;;18.11;96.00
77685;BME280;66844;46.092;18.268;2023-08-06T01:23:07;98019.81;;;18.13;96.13
77685;BME280;66844;46.092;18.268;2023-08-06T01:23:41;98020.00;;;18.11;96.32
77685;BME280;66844;46.092;18.268;2023-08-06T01:24:14;98017.31;;;18.11;96.20
77685;BME280;66844;46.092;18.268;2023-08-06T01:24:48;98022.34;;;18.06;96.41
77685;BME280;66844;46.092;18.268;2023-08-06T01:26:48;98021.56;;;17.98;97.74
77685;BME280;66844;46.092;18.268;2023-08-06T01:27:27;98015.13;;;17.99;97.46
77685;BME280;66844;46.092;18.268;2023-08-06T01:28:11;98011.63;;;17.90;98.03
77685;BME280;66844;46.092;18.268;2023-08-06T01:29:41;98017.03;;;17.90;98.96
77685;BME280;66844;46.092;18.268;2023-08-06T01:30:26;98025.09;;;17.82;98.75
77685;BME280;66844;46.092;18.268;2023-08-06T01:31:02;98019.72;;;17.90;99.29
77685;BME280;66844;46.092;18.268;2023-08-06T01:31:38;98022.91;;;17.93;98.73
77685;BME280;66844;46.092;18.268;2023-08-06T01:32:11;98023.41;;;17.97;98.68
77685;BME280;66844;46.092;18.268;2023-08-06T01:32:47;98020.53;;;17.90;98.44
77685;BME280;66844;46.092;18.268;2023-08-06T01:33:21;98014.13;;;17.91;98.84
77685;BME280;66844;46.092;18.268;2023-08-06T01:33:57;98019.38;;;17.85;98.80
77685;BME280;66844;46.092;18.268;2023-08-06T01:34:32;98021.56;;;17.89;99.01
77685;BME280;66844;46.092;18.268;2023-08-06T01:35:06;98020.22;;;17.85;98.90
77685;BME280;66844;46.092;18.268;2023-08-06T01:35:40;98017.69;;;17.92;98.71
77685;BME280;66844;46.092;18.268;2023-08-06T01:36:16;98012.63;;;17.89;98.98
77685;BME280;66844;46.092;18.268;2023-08-06T01:36:51;98022.72;;;17.87;98.79
77685;BME280;66844;46.092;18.268;2023-08-06T01:37:23;98022.91;;;17.85;98.74
77685;BME280;66844;46.092;18.268;2023-08-06T01:37:56;98022.91;;;17.85;99.33
77685;BME280;66844;46.092;18.268;2023-08-06T01:38:28;98029.63;;;17.89;99.39
77685;BME280;66844;46.092;18.268;2023-08-06T01:39:00;98028.59;;;17.90;99.32
77685;BME280;66844;46.092;18.268;2023-08-06T01:39:35;98031.78;;;17.94;99.13
77685;BME280;66844;46.092;18.268;2023-08-06T01:40:12;98029.63;;;17.98;99.22
77685;BME280;66844;46.092;18.268;2023-08-06T01:40:44;98023.06;;;18.00;98.65
77685;BME280;66844;46.092;18.268;2023-08-06T01:41:16;98031.13;;;18.00;98.51
77685;BME280;66844;46.092;18.268;2023-08-06T01:41:48;98029.09;;;18.02;98.26
77685;BME280;66844;46.092;18.268;2023-08-06T01:42:20;98022.19;;;18.00;98.19
77685;BME280;66844;46.092;18.268;2023-08-06T01:42:52;98013.13;;;18.01;98.61
77685;BME280;66844;46.092;18.268;2023-08-06T01:43:24;98011.09;;;18.03;98.90
77685;BME280;66844;46.092;18.268;2023-08-06T01:43:56;98006.41;;;18.05;98.83
77685;BME280;66844;46.092;18.268;2023-08-06T01:44:28;98002.03;;;18.04;98.83
77685;BME280;66844;46.092;18.268;2023-08-06T01:45:01;98016.97;;;18.06;98.97
77685;BME280;66844;46.092;18.268;2023-08-06T01:45:33;98012.78;;;18.04;99.10
77685;BME280;66844;46.092;18.268;2023-08-06T01:46:05;98013.63;;;18.04;99.18
77685;BME280;66844;46.092;18.268;2023-08-06T01:46:37;98008.75;;;17.91;98.99
77685;BME280;66844;46.092;18.268;2023-08-06T01:47:09;98005.06;;;17.84;99.79
77685;BME280;66844;46.092;18.268;2023-08-06T01:47:41;98005.06;;;17.84;100.00
77685;BME280;66844;46.092;18.268;2023-08-06T01:48:13;98006.56;;;17.87;99.73
77685;BME280;66844;46.092;18.268;2023-08-06T01:48:45;98008.09;;;17.81;100.00
77685;BME280;66844;46.092;18.268;2023-08-06T01:49:17;98013.50;;;17.81;100.00
77685;BME280;66844;46.092;18.268;2023-08-06T01:49:49;98023.25;;;17.82;99.97
77685;BME280;66844;46.092;18.268;2023-08-06T01:50:21;98017.88;;;17.82;100.00
77685;BME280;66844;46.092;18.268;2023-08-06T01:50:53;98027.44;;;17.85;99.95
77685;BME280;66844;46.092;18.268;2023-08-06T01:51:25;98024.25;;;17.89;100.00
77685;BME280;66844;46.092;18.268;2023-08-06T01:51:57;98025.09;;;17.90;100.00
77685;BME280;66844;46.092;18.268;2023-08-06T01:52:29;98025.91;;;17.90;100.00
77685;BME280;66844;46.092;18.268;2023-08-06T01:53:01;98018.88;;;17.89;100.00
77685;BME280;66844;46.092;18.268;2023-08-06T01:53:33;98023.06;;;17.84;100.00
77685;BME280;66844;46.092;18.268;2023-08-06T01:54:05;98014.69;;;17.79;100.00
77685;BME280;66844;46.092;18.268;2023-08-06T01:54:37;98016.88;;;17.75;100.00
77685;BME280;66844;46.092;18.268;2023-08-06T01:55:09;98009.31;;;17.71;100.00
77685;BME280;66844;46.092;18.268;2023-08-06T01:55:41;98015.19;;;17.74;100.00
77685;BME280;66844;46.092;18.268;2023-08-06T01:56:13;98018.53;;;17.68;100.00
77685;BME280;66844;46.092;18.268;2023-08-06T01:56:45;98020.72;;;17.73;100.00
77685;BME280;66844;46.092;18.268;2023-08-06T01:57:18;98016.19;;;17.73;100.00
77685;BME280;66844;46.092;18.268;2023-08-06T01:57:49;98018.38;;;17.70;100.00
77685;BME280;66844;46.092;18.268;2023-08-06T01:58:21;98022.41;;;17.74;100.00
77685;BME280;66844;46.092;18.268;2023-08-06T01:58:53;98017.03;;;17.74;100.00
77685;BME280;66844;46.092;18.268;2023-08-06T01:59:25;98014.19;;;17.75;100.00
77685;BME280;66844;46.092;18.268;2023-08-06T01:59:57;98013.34;;;17.75;100.00
77685;BME280;66844;46.092;18.268;2023-08-06T02:00:29;98012.31;;;17.76;100.00
77685;BME280;66844;46.092;18.268;2023-08-06T02:01:02;98015.00;;;17.76;100.00
77685;BME280;66844;46.092;18.268;2023-08-06T02:01:34;98005.25;;;17.75;100.00
77685;BME280;66844;46.092;18.268;2023-08-06T02:02:06;98011.31;;;17.77;100.00
77685;BME280;66844;46.092;18.268;2023-08-06T02:02:38;98015.19;;;17.74;100.00
77685;BME280;66844;46.092;18.268;2023-08-06T02:03:10;98010.97;;;17.72;100.00
77685;BME280;66844;46.092;18.268;2023-08-06T02:03:42;98011.31;;;17.69;100.00
77685;BME280;66844;46.092;18.268;2023-08-06T02:04:14;98015.84;;;17.68;100.00
77685;BME280;66844;46.092;18.268;2023-08-06T02:04:46;98013.84;;;17.70;100.00
77685;BME280;66844;46.092;18.268;2023-08-06T02:05:18;98016.53;;;17.70;100.00
77685;BME280;66844;46.092;18.268;2023-08-06T02:05:50;98014.00;;;17.69;100.00
77685;BME280;66844;46.092;18.268;2023-08-06T02:06:25;98023.59;;;17.71;100.00
77685;BME280;66844;46.092;18.268;2023-08-06T02:06:57;98012.84;;;17.71;100.00
77685;BME280;66844;46.092;18.268;2023-08-06T02:07:29;98005.75;;;17.62;100.00
77685;BME280;66844;46.092;18.268;2023-08-06T02:08:01;98009.97;;;17.65;100.00
77685;BME280;66844;46.092;18.268;2023-08-06T02:08:33;98012.66;;;17.65;100.00
77685;BME280;66844;46.092;18.268;2023-08-06T02:09:05;98012.13;;;17.61;100.00
77685;BME280;66844;46.092;18.268;2023-08-06T02:09:37;98009.44;;;17.61;100.00
77685;BME280;66844;46.092;18.268;2023-08-06T02:10:09;98009.78;;;17.58;100.00
77685;BME280;66844;46.092;18.268;2023-08-06T02:10:41;98013.34;;;17.59;100.00
77685;BME280;66844;46.092;18.268;2023-08-06T02:11:13;98006.09;;;17.59;100.00
77685;BME280;66844;46.092;18.268;2023-08-06T02:11:45;98013.47;;;17.57;100.00
77685;BME280;66844;46.092;18.268;2023-08-06T02:12:17;98006.94;;;17.60;100.00
77685;BME280;66844;46.092;18.268;2023-08-06T02:12:49;98008.59;;;17.53;100.00
77685;BME280;66844;46.092;18.268;2023-08-06T02:13:21;98014.28;;;17.50;100.00
77685;BME280;66844;46.092;18.268;2023-08-06T02:13:52;98011.44;;;17.51;100.00
77685;BME280;66844;46.092;18.268;2023-08-06T02:14:24;98010.28;;;17.45;100.00
77685;BME280;66844;46.092;18.268;2023-08-06T02:14:56;98012.63;;;17.49;100.00
77685;BME280;66844;46.092;18.268;2023-08-06T02:15:28;98014.97;;;17.43;100.00
77685;BME280;66844;46.092;18.268;2023-08-06T02:16:00;98020.84;;;17.47;100.00
77685;BME280;66844;46.092;18.268;2023-08-06T02:16:32;98015.31;;;17.49;100.00
77685;BME280;66844;46.092;18.268;2023-08-06T02:17:04;98020.00;;;17.46;100.00
77685;BME280;66844;46.092;18.268;2023-08-06T02:17:36;98017.50;;;17.45;100.00
77685;BME280;66844;46.092;18.268;2023-08-06T02:18:08;98021.19;;;17.44;100.00
77685;BME280;66844;46.092;18.268;2023-08-06T02:18:40;98015.81;;;17.36;100.00
77685;BME280;66844;46.092;18.268;2023-08-06T02:19:12;98019.00;;;17.31;100.00
77685;BME280;66844;46.092;18.268;2023-08-06T02:19:44;98019.00;;;17.31;100.00
77685;BME280;66844;46.092;18.268;2023-08-06T02:20:16;98016.16;;;17.33;100.00
77685;BME280;66844;46.092;18.268;2023-08-06T02:21:00;98019.00;;;17.31;100.00
77685;BME280;66844;46.092;18.268;2023-08-06T02:21:32;98014.13;;;17.35;100.00
77685;BME280;66844;46.092;18.268;2023-08-06T02:22:04;98014.81;;;17.37;100.00
77685;BME280;66844;46.092;18.268;2023-08-06T02:22:36;98024.38;;;17.39;100.00
77685;BME280;66844;46.092;18.268;2023-08-06T02:23:08;98023.03;;;17.35;100.00
77685;BME280;66844;46.092;18.268;2023-08-06T02:23:40;98014.31;;;17.33;100.00
77685;BME280;66844;46.092;18.268;2023-08-06T02:24:12;98020.34;;;17.35;100.00
77685;BME280;66844;46.092;18.268;2023-08-06T02:24:44;98020.34;;;17.35;100.00
77685;BME280;66844;46.092;18.268;2023-08-06T02:25:16;98016.63;;;17.28;100.00
77685;BME280;66844;46.092;18.268;2023-08-06T02:25:48;98019.66;;;17.25;100.00
77685;BME280;66844;46.092;18.268;2023-08-06T02:26:20;98021.50;;;17.25;100.00
77685;BME280;66844;46.092;18.268;2023-08-06T02:26:52;98017.63;;;17.27;100.00
77685;BME280;66844;46.092;18.268;2023-08-06T02:27:27;98022.00;;;17.28;100.00
77685;BME280;66844;46.092;18.268;2023-08-06T02:27:59;98019.50;;;17.27;100.00
77685;BME280;66844;46.092;18.268;2023-08-06T02:28:32;98017.31;;;17.22;100.00
77685;BME280;66844;46.092;18.268;2023-08-06T02:29:04;98017.16;;;17.16;100.00
77685;BME280;66844;46.092;18.268;2023-08-06T02:29:36;98009.22;;;17.14;100.00
77685;BME280;66844;46.092;18.268;2023-08-06T02:30:08;98013.63;;;17.15;100.00
77685;BME280;66844;46.092;18.268;2023-08-06T02:30:48;98017.81;;;17.18;100.00
77685;BME280;66844;46.092;18.268;2023-08-06T02:31:20;98018.81;;;17.17;100.00
77685;BME280;66844;46.092;18.268;2023-08-06T02:31:52;98009.56;;;17.11;100.00
77685;BME280;66844;46.092;18.268;2023-08-06T02:32:25;98014.94;;;17.11;100.00
77685;BME280;66844;46.092;18.268;2023-08-06T02:32:57;98014.25;;;17.09;100.00
77685;BME280;66844;46.092;18.268;2023-08-06T02:33:29;98020.97;;;17.13;100.00
77685;BME280;66844;46.092;18.268;2023-08-06T02:34:01;98013.25;;;17.10;100.00
77685;BME280;66844;46.092;18.268;2023-08-06T02:34:33;98015.94;;;17.10;100.00
77685;BME280;66844;46.092;18.268;2023-08-06T02:35:05;98020.47;;;17.10;100.00
77685;BME280;66844;46.092;18.268;2023-08-06T02:35:37;98008.53;;;16.96;100.00
77685;BME280;66844;46.092;18.268;2023-08-06T02:36:09;98024.97;;;17.01;100.00
77685;BME280;66844;46.092;18.268;2023-08-06T02:36:41;98016.75;;;17.03;100.00
77685;BME280;66844;46.092;18.268;2023-08-06T02:37:13;98018.28;;;17.05;100.00
77685;BME280;66844;46.092;18.268;2023-08-06T02:37:45;98002.31;;;16.95;100.00
77685;BME280;66844;46.092;18.268;2023-08-06T02:38:17;98005.81;;;16.88;100.00
77685;BME280;66844;46.092;18.268;2023-08-06T02:38:49;98014.06;;;16.94;100.00
77685;BME280;66844;46.092;18.268;2023-08-06T02:39:21;98016.41;;;16.97;100.00
77685;BME280;66844;46.092;18.268;2023-08-06T02:39:53;98011.88;;;16.98;100.00
77685;BME280;66844;46.092;18.268;2023-08-06T02:40:25;98011.88;;;16.98;100.00
77685;BME280;66844;46.092;18.268;2023-08-06T02:40:57;98011.88;;;16.98;100.00
77685;BME280;66844;46.092;18.268;2023-08-06T02:41:29;98006.69;;;16.96;100.00
77685;BME280;66844;46.092;18.268;2023-08-06T02:42:01;98011.88;;;16.98;100.00
77685;BME280;66844;46.092;18.268;2023-08-06T02:42:32;98015.06;;;17.02;100.00
77685;BME280;66844;46.092;18.268;2023-08-06T02:43:04;98012.56;;;16.92;100.00
77685;BME280;66844;46.092;18.268;2023-08-06T02:43:36;98006.84;;;16.95;100.00
77685;BME280;66844;46.092;18.268;2023-08-06T02:44:08;98007.53;;;16.97;100.00
77685;BME280;66844;46.092;18.268;2023-08-06T02:44:40;98007.00;;;16.93;100.00
77685;BME280;66844;46.092;18.268;2023-08-06T02:45:12;98007.84;;;16.94;100.00
77685;BME280;66844;46.092;18.268;2023-08-06T02:45:44;98015.75;;;16.95;100.00
77685;BME280;66844;46.092;18.268;2023-08-06T02:46:16;98008.34;;;16.97;100.00
77685;BME280;66844;46.092;18.268;2023-08-06T02:46:48;98011.88;;;16.98;100.00
77685;BME280;66844;46.092;18.268;2023-08-06T02:47:20;98011.38;;;17.03;100.00
77685;BME280;66844;46.092;18.268;2023-08-06T02:47:52;98006.88;;;17.03;100.00
77685;BME280;66844;46.092;18.268;2023-08-06T02:48:25;98016.63;;;17.04;100.00
77685;BME280;66844;46.092;18.268;2023-08-06T02:48:57;98008.56;;;17.04;100.00
77685;BME280;66844;46.092;18.268;2023-08-06T02:49:29;98011.06;;;17.06;100.00
77685;BME280;66844;46.092;18.268;2023-08-06T02:50:01;98010.72;;;17.09;100.00
77685;BME280;66844;46.092;18.268;2023-08-06T02:50:40;98009.22;;;17.06;100.00
77685;BME280;66844;46.092;18.268;2023-08-06T02:51:12;98008.03;;;17.09;100.00
77685;BME280;66844;46.092;18.268;2023-08-06T02:51:46;98002.66;;;17.09;100.00
77685;BME280;66844;46.092;18.268;2023-08-06T02:52:18;98004.53;;;17.08;100.00
77685;BME280;66844;46.092;18.268;2023-08-06T02:52:50;98002.00;;;17.07;99.73
77685;BME280;66844;46.092;18.268;2023-08-06T02:53:22;98011.06;;;17.14;100.00
77685;BME280;66844;46.092;18.268;2023-08-06T02:53:54;98005.69;;;17.14;99.30
77685;BME280;66844;46.092;18.268;2023-08-06T02:54:26;98001.16;;;17.14;99.12
77685;BME280;66844;46.092;18.268;2023-08-06T02:54:58;97997.50;;;17.15;98.83
77685;BME280;66844;46.092;18.268;2023-08-06T02:55:32;98004.00;;;17.13;98.88
77685;BME280;66844;46.092;18.268;2023-08-06T02:56:05;98009.38;;;17.13;99.11
77685;BME280;66844;46.092;18.268;2023-08-06T02:56:37;97987.03;;;17.12;98.46
77685;BME280;66844;46.092;18.268;2023-08-06T02:57:09;98003.00;;;17.14;98.55
77685;BME280;66844;46.092;18.268;2023-08-06T02:57:41;97996.97;;;17.12;98.26